sensor_id;sensor_type;location;lat;lon;timestamp;pressure;altitude;pressure_sealevel;temperature;humidity
63351;BME280;64988;51.058;17.040;2023-04-23T00:02:44;99669.59;;;10.79;62.04
63351;BME280;64988;51.058;17.040;2023-04-23T00:08:17;99672.81;;;10.73;61.50
63351;BME280;64988;51.058;17.040;2023-04-23T00:13:45;99667.41;;;10.73;62.17
63351;BME280;64988;51.058;17.040;2023-04-23T00:19:13;99651.09;;;10.74;61.53
63351;BME280;64988;51.058;17.040;2023-04-23T00:24:42;99672.53;;;10.66;61.44
63351;BME280;64988;51.058;17.040;2023-04-23T00:30:10;99666.38;;;10.54;62.29
63351;BME280;64988;51.058;17.040;2023-04-23T00:35:37;99661.41;;;10.50;62.71
63351;BME280;64988;51.058;17.040;2023-04-23T00:41:05;99651.97;;;10.44;62.81
63351;BME280;64988;51.058;17.040;2023-04-23T00:46:36;99643.03;;;10.44;62.97
63351;BME280;64988;51.058;17.040;2023-04-23T00:52:04;99637.63;;;10.44;63.19
63351;BME280;64988;51.058;17.040;2023-04-23T00:57:32;99647.00;;;10.40;62.62
63351;BME280;64988;51.058;17.040;2023-04-23T01:02:59;99639.47;;;10.34;63.23
63351;BME280;64988;51.058;17.040;2023-04-23T01:08:29;99645.38;;;10.28;63.14
63351;BME280;64988;51.058;17.040;2023-04-23T01:13:58;99654.03;;;10.31;62.71
63351;BME280;64988;51.058;17.040;2023-04-23T01:19:26;99643.94;;;10.03;63.89
63351;BME280;64988;51.058;17.040;2023-04-23T01:24:54;99645.72;;;9.93;64.02
63351;BME280;64988;51.058;17.040;2023-04-23T01:30:24;99640.75;;;9.88;64.29
63351;BME280;64988;51.058;17.040;2023-04-23T01:35:54;99631.25;;;9.94;64.32
63351;BME280;64988;51.058;17.040;2023-04-23T01:41:21;99635.91;;;9.92;63.83
63351;BME280;64988;51.058;17.040;2023-04-23T01:46:49;99631.91;;;9.86;63.78
63351;BME280;64988;51.058;17.040;2023-04-23T01:52:17;99629.63;;;9.82;64.36
63351;BME280;64988;51.058;17.040;2023-04-23T01:57:45;99622.97;;;9.86;63.83
63351;BME280;64988;51.058;17.040;2023-04-23T02:03:13;99622.25;;;9.84;63.99
63351;BME280;64988;51.058;17.040;2023-04-23T02:08:41;99620.69;;;9.61;64.86
63351;BME280;64988;51.058;17.040;2023-04-23T02:14:09;99615.63;;;9.46;65.30
63351;BME280;64988;51.058;17.040;2023-04-23T02:19:37;99620.84;;;9.27;64.56
63351;BME280;64988;51.058;17.040;2023-04-23T02:25:05;99613.81;;;9.15;66.25
63351;BME280;64988;51.058;17.040;2023-04-23T02:30:34;99612.34;;;9.11;66.71
63351;BME280;64988;51.058;17.040;2023-04-23T02:36:30;99609.28;;;9.16;66.29
63351;BME280;64988;51.058;17.040;2023-04-23T02:41:59;99613.88;;;9.04;66.95
63351;BME280;64988;51.058;17.040;2023-04-23T02:47:26;99608.94;;;9.09;66.56
63351;BME280;64988;51.058;17.040;2023-04-23T02:52:53;99606.47;;;9.17;66.49
63351;BME280;64988;51.058;17.040;2023-04-23T02:58:21;99608.03;;;9.20;66.39
63351;BME280;64988;51.058;17.040;2023-04-23T03:03:51;99612.84;;;9.16;66.57
63351;BME280;64988;51.058;17.040;2023-04-23T03:09:19;99608.41;;;9.15;66.47
63351;BME280;64988;51.058;17.040;2023-04-23T03:14:46;99613.34;;;9.10;66.60
63351;BME280;64988;51.058;17.040;2023-04-23T03:20:14;99599.28;;;9.07;66.74
63351;BME280;64988;51.058;17.040;2023-04-23T03:25:42;99607.97;;;9.10;66.00
63351;BME280;64988;51.058;17.040;2023-04-23T03:31:10;99602.09;;;9.05;66.70
63351;BME280;64988;51.058;17.040;2023-04-23T03:36:38;99603.56;;;9.09;66.70
63351;BME280;64988;51.058;17.040;2023-04-23T03:42:06;99603.44;;;9.11;66.80
63351;BME280;64988;51.058;17.040;2023-04-23T03:47:35;99589.38;;;9.28;65.99
63351;BME280;64988;51.058;17.040;2023-04-23T03:53:03;99597.09;;;9.32;66.05
63351;BME280;64988;51.058;17.040;2023-04-23T03:59:06;99605.94;;;9.44;65.77
63351;BME280;64988;51.058;17.040;2023-04-23T04:04:33;99596.50;;;9.70;64.72
63351;BME280;64988;51.058;17.040;2023-04-23T04:10:01;99601.69;;;9.83;64.11
63351;BME280;64988;51.058;17.040;2023-04-23T04:15:29;99600.03;;;9.91;64.23
63351;BME280;64988;51.058;17.040;2023-04-23T04:20:58;99603.94;;;10.08;63.58
63351;BME280;64988;51.058;17.040;2023-04-23T04:26:25;99594.06;;;10.48;62.58
63351;BME280;64988;51.058;17.040;2023-04-23T04:31:53;99584.97;;;13.12;56.91
63351;BME280;64988;51.058;17.040;2023-04-23T04:37:20;99590.88;;;15.86;47.80
63351;BME280;64988;51.058;17.040;2023-04-23T04:42:47;99578.72;;;17.98;41.98
63351;BME280;64988;51.058;17.040;2023-04-23T04:48:14;99578.72;;;20.27;36.80
63351;BME280;64988;51.058;17.040;2023-04-23T04:53:42;99584.78;;;21.59;33.31
63351;BME280;64988;51.058;17.040;2023-04-23T04:59:09;99583.56;;;23.11;30.53
63351;BME280;64988;51.058;17.040;2023-04-23T05:04:36;99588.47;;;24.34;28.46
63351;BME280;64988;51.058;17.040;2023-04-23T05:10:04;99590.19;;;25.74;26.37
63351;BME280;64988;51.058;17.040;2023-04-23T05:15:31;99590.56;;;26.30;25.38
63351;BME280;64988;51.058;17.040;2023-04-23T05:20:59;99583.22;;;26.47;24.94
63351;BME280;64988;51.058;17.040;2023-04-23T05:26:26;99583.25;;;27.22;23.95
63351;BME280;64988;51.058;17.040;2023-04-23T05:31:54;99581.31;;;27.79;23.67
63351;BME280;64988;51.058;17.040;2023-04-23T05:37:21;99577.81;;;28.84;22.48
63351;BME280;64988;51.058;17.040;2023-04-23T05:42:50;99585.72;;;30.47;20.37
